Terminal Aerodrome Forecast
Issued by NWS Blacksburg, VA

Home | Current Version | Previous Version | Text Only | Print | Product List | Glossary On
Versions: 1 2 3 4 5 6 7 8 9 10 11 12 13 14 15 16 17 18 19
000
FTUS41 KRNK 262332
TAFROA
TAF
KROA 262332Z 2700/2724 14009KT P6SM -RA SCT070 OVC100
     FM270300 14006KT 6SM -SHRA OVC025
     FM270500 14003KT 3SM -SHRA OVC008
     FM271100 VRB02KT 2SM BR VCSH OVC015
     FM271300 32005KT P6SM OVC025
     FM271600 31010KT P6SM BKN040=

USA.gov is the U.S. government's official web portal to all federal, state and local government web resources and services.